sensor_id;sensor_type;location;lat;lon;timestamp;temperature;humidity
46336;DHT22;31365;48.858;8.530;2023-07-31T00:02:25;17.40;99.90
46336;DHT22;31365;48.858;8.530;2023-07-31T00:04:56;17.40;99.90
46336;DHT22;31365;48.858;8.530;2023-07-31T00:07:24;17.30;99.90
46336;DHT22;31365;48.858;8.530;2023-07-31T00:09:52;17.30;99.90
46336;DHT22;31365;48.858;8.530;2023-07-31T00:12:21;17.30;99.90
46336;DHT22;31365;48.858;8.530;2023-07-31T00:14:50;17.20;99.90
46336;DHT22;31365;48.858;8.530;2023-07-31T00:17:18;17.20;99.90
46336;DHT22;31365;48.858;8.530;2023-07-31T00:19:46;17.20;99.90
46336;DHT22;31365;48.858;8.530;2023-07-31T00:22:19;17.20;99.90
46336;DHT22;31365;48.858;8.530;2023-07-31T00:24:47;17.20;99.90
46336;DHT22;31365;48.858;8.530;2023-07-31T00:27:15;17.10;99.90
46336;DHT22;31365;48.858;8.530;2023-07-31T00:29:43;17.20;99.90
46336;DHT22;31365;48.858;8.530;2023-07-31T00:32:11;17.10;99.90
46336;DHT22;31365;48.858;8.530;2023-07-31T00:34:39;17.10;99.90
46336;DHT22;31365;48.858;8.530;2023-07-31T00:37:07;17.10;99.90
46336;DHT22;31365;48.858;8.530;2023-07-31T00:39:37;17.10;99.90
46336;DHT22;31365;48.858;8.530;2023-07-31T00:42:06;17.00;99.90
46336;DHT22;31365;48.858;8.530;2023-07-31T00:44:34;17.00;99.90
46336;DHT22;31365;48.858;8.530;2023-07-31T00:47:03;17.00;99.90
46336;DHT22;31365;48.858;8.530;2023-07-31T00:49:32;17.00;99.90
46336;DHT22;31365;48.858;8.530;2023-07-31T00:52:00;17.00;99.90
46336;DHT22;31365;48.858;8.530;2023-07-31T00:54:29;17.00;99.90
46336;DHT22;31365;48.858;8.530;2023-07-31T00:57:00;16.90;99.90
46336;DHT22;31365;48.858;8.530;2023-07-31T00:59:29;16.90;99.90
46336;DHT22;31365;48.858;8.530;2023-07-31T01:01:58;16.90;99.90
46336;DHT22;31365;48.858;8.530;2023-07-31T01:04:27;16.90;99.90
46336;DHT22;31365;48.858;8.530;2023-07-31T01:07:01;16.90;99.90
46336;DHT22;31365;48.858;8.530;2023-07-31T01:09:42;16.90;99.90
46336;DHT22;31365;48.858;8.530;2023-07-31T01:12:17;16.90;99.90
46336;DHT22;31365;48.858;8.530;2023-07-31T01:14:52;16.90;99.90
46336;DHT22;31365;48.858;8.530;2023-07-31T01:17:31;16.90;99.90
46336;DHT22;31365;48.858;8.530;2023-07-31T01:20:02;16.90;99.90
46336;DHT22;31365;48.858;8.530;2023-07-31T01:26:00;16.90;99.90
46336;DHT22;31365;48.858;8.530;2023-07-31T01:28:38;16.90;99.90
46336;DHT22;31365;48.858;8.530;2023-07-31T01:31:16;16.90;99.90
46336;DHT22;31365;48.858;8.530;2023-07-31T01:33:53;16.80;99.90
46336;DHT22;31365;48.858;8.530;2023-07-31T01:36:24;16.90;99.90
46336;DHT22;31365;48.858;8.530;2023-07-31T01:38:53;16.80;99.90
46336;DHT22;31365;48.858;8.530;2023-07-31T01:41:28;16.80;99.90
46336;DHT22;31365;48.858;8.530;2023-07-31T01:43:56;16.80;99.90
46336;DHT22;31365;48.858;8.530;2023-07-31T01:46:24;16.80;99.90
46336;DHT22;31365;48.858;8.530;2023-07-31T01:49:06;16.90;99.90
46336;DHT22;31365;48.858;8.530;2023-07-31T01:51:34;16.90;99.90
46336;DHT22;31365;48.858;8.530;2023-07-31T01:54:03;16.90;99.90
46336;DHT22;31365;48.858;8.530;2023-07-31T01:56:33;16.90;99.90
46336;DHT22;31365;48.858;8.530;2023-07-31T01:59:01;16.90;99.90
46336;DHT22;31365;48.858;8.530;2023-07-31T02:01:30;16.80;99.90
46336;DHT22;31365;48.858;8.530;2023-07-31T02:03:59;16.80;99.90
46336;DHT22;31365;48.858;8.530;2023-07-31T02:06:27;16.80;99.90
46336;DHT22;31365;48.858;8.530;2023-07-31T02:08:55;16.90;99.90
46336;DHT22;31365;48.858;8.530;2023-07-31T02:11:24;16.80;99.90
46336;DHT22;31365;48.858;8.530;2023-07-31T02:13:53;16.80;99.90
46336;DHT22;31365;48.858;8.530;2023-07-31T02:16:22;16.80;99.90
46336;DHT22;31365;48.858;8.530;2023-07-31T02:18:50;16.80;99.90
46336;DHT22;31365;48.858;8.530;2023-07-31T02:21:18;16.80;99.90
46336;DHT22;31365;48.858;8.530;2023-07-31T02:23:47;16.90;99.90
46336;DHT22;31365;48.858;8.530;2023-07-31T02:26:15;16.90;99.90
46336;DHT22;31365;48.858;8.530;2023-07-31T02:28:43;16.90;99.90
46336;DHT22;31365;48.858;8.530;2023-07-31T02:31:13;16.90;99.90
46336;DHT22;31365;48.858;8.530;2023-07-31T02:33:41;16.90;99.90
46336;DHT22;31365;48.858;8.530;2023-07-31T02:36:10;16.90;99.90
46336;DHT22;31365;48.858;8.530;2023-07-31T02:38:38;16.90;99.90
46336;DHT22;31365;48.858;8.530;2023-07-31T02:41:07;16.90;99.90
46336;DHT22;31365;48.858;8.530;2023-07-31T02:43:35;16.90;99.90
46336;DHT22;31365;48.858;8.530;2023-07-31T02:46:03;16.80;99.90
46336;DHT22;31365;48.858;8.530;2023-07-31T02:48:33;16.90;99.90
46336;DHT22;31365;48.858;8.530;2023-07-31T02:51:02;16.80;99.90
46336;DHT22;31365;48.858;8.530;2023-07-31T02:53:31;16.80;99.90
46336;DHT22;31365;48.858;8.530;2023-07-31T02:55:59;16.80;99.90
46336;DHT22;31365;48.858;8.530;2023-07-31T02:58:27;16.80;99.90
46336;DHT22;31365;48.858;8.530;2023-07-31T03:00:57;16.80;99.90
46336;DHT22;31365;48.858;8.530;2023-07-31T03:03:26;16.80;99.90
46336;DHT22;31365;48.858;8.530;2023-07-31T03:05:56;16.90;99.90
46336;DHT22;31365;48.858;8.530;2023-07-31T03:08:25;16.90;99.90
46336;DHT22;31365;48.858;8.530;2023-07-31T03:10:54;16.90;99.90
46336;DHT22;31365;48.858;8.530;2023-07-31T03:13:22;16.90;99.90
46336;DHT22;31365;48.858;8.530;2023-07-31T03:15:50;17.00;99.90
46336;DHT22;31365;48.858;8.530;2023-07-31T03:18:19;16.90;99.90
46336;DHT22;31365;48.858;8.530;2023-07-31T03:20:48;17.00;99.90
46336;DHT22;31365;48.858;8.530;2023-07-31T03:23:17;17.00;99.90
46336;DHT22;31365;48.858;8.530;2023-07-31T03:25:57;17.00;99.90
46336;DHT22;31365;48.858;8.530;2023-07-31T03:28:29;17.00;99.90
46336;DHT22;31365;48.858;8.530;2023-07-31T03:30:58;17.00;99.90
46336;DHT22;31365;48.858;8.530;2023-07-31T03:33:27;17.10;99.90
46336;DHT22;31365;48.858;8.530;2023-07-31T03:35:56;17.10;99.90
46336;DHT22;31365;48.858;8.530;2023-07-31T03:38:26;17.10;99.90
46336;DHT22;31365;48.858;8.530;2023-07-31T03:40:54;17.10;99.90
46336;DHT22;31365;48.858;8.530;2023-07-31T03:43:22;17.20;99.90
46336;DHT22;31365;48.858;8.530;2023-07-31T03:45:51;17.10;99.90
46336;DHT22;31365;48.858;8.530;2023-07-31T03:48:20;17.10;99.90
46336;DHT22;31365;48.858;8.530;2023-07-31T03:50:49;17.10;99.90
46336;DHT22;31365;48.858;8.530;2023-07-31T03:53:17;17.20;99.90
46336;DHT22;31365;48.858;8.530;2023-07-31T03:55:47;17.20;99.90
46336;DHT22;31365;48.858;8.530;2023-07-31T03:58:15;17.20;99.90
46336;DHT22;31365;48.858;8.530;2023-07-31T04:00:43;17.20;99.90
46336;DHT22;31365;48.858;8.530;2023-07-31T04:03:11;17.20;99.90
46336;DHT22;31365;48.858;8.530;2023-07-31T04:05:39;17.20;99.90
46336;DHT22;31365;48.858;8.530;2023-07-31T04:08:08;17.20;99.90
46336;DHT22;31365;48.858;8.530;2023-07-31T04:10:36;17.20;99.90
46336;DHT22;31365;48.858;8.530;2023-07-31T04:13:05;17.20;99.90
46336;DHT22;31365;48.858;8.530;2023-07-31T04:15:34;17.20;99.90
46336;DHT22;31365;48.858;8.530;2023-07-31T04:18:02;17.20;99.90
46336;DHT22;31365;48.858;8.530;2023-07-31T04:20:31;17.20;99.90
46336;DHT22;31365;48.858;8.530;2023-07-31T04:22:59;17.20;99.90
46336;DHT22;31365;48.858;8.530;2023-07-31T04:25:28;17.20;99.90
46336;DHT22;31365;48.858;8.530;2023-07-31T04:27:56;17.20;99.90
46336;DHT22;31365;48.858;8.530;2023-07-31T04:30:26;17.20;99.90
46336;DHT22;31365;48.858;8.530;2023-07-31T04:32:54;17.20;99.90
46336;DHT22;31365;48.858;8.530;2023-07-31T04:35:22;17.20;99.90
46336;DHT22;31365;48.858;8.530;2023-07-31T04:37:50;17.10;99.90
46336;DHT22;31365;48.858;8.530;2023-07-31T04:40:18;17.10;99.90
46336;DHT22;31365;48.858;8.530;2023-07-31T04:42:46;17.10;99.90
46336;DHT22;31365;48.858;8.530;2023-07-31T04:45:14;17.20;99.90
46336;DHT22;31365;48.858;8.530;2023-07-31T04:47:44;17.20;99.90
46336;DHT22;31365;48.858;8.530;2023-07-31T04:50:13;17.20;99.90
46336;DHT22;31365;48.858;8.530;2023-07-31T04:52:41;17.20;99.90
46336;DHT22;31365;48.858;8.530;2023-07-31T04:55:09;17.20;99.90
46336;DHT22;31365;48.858;8.530;2023-07-31T04:57:37;17.20;99.90
46336;DHT22;31365;48.858;8.530;2023-07-31T05:00:06;17.20;99.90
46336;DHT22;31365;48.858;8.530;2023-07-31T05:02:35;17.20;99.90
46336;DHT22;31365;48.858;8.530;2023-07-31T05:05:05;17.30;99.90
46336;DHT22;31365;48.858;8.530;2023-07-31T05:07:33;17.30;99.90
46336;DHT22;31365;48.858;8.530;2023-07-31T05:10:02;17.40;99.90
46336;DHT22;31365;48.858;8.530;2023-07-31T05:12:30;17.40;99.90
46336;DHT22;31365;48.858;8.530;2023-07-31T05:14:58;17.40;99.90
46336;DHT22;31365;48.858;8.530;2023-07-31T05:17:27;17.50;99.90
46336;DHT22;31365;48.858;8.530;2023-07-31T05:19:55;17.50;99.90
46336;DHT22;31365;48.858;8.530;2023-07-31T05:22:24;17.60;99.90
46336;DHT22;31365;48.858;8.530;2023-07-31T05:24:52;17.70;99.90
46336;DHT22;31365;48.858;8.530;2023-07-31T05:27:22;17.70;99.90
46336;DHT22;31365;48.858;8.530;2023-07-31T05:29:50;17.80;99.90
46336;DHT22;31365;48.858;8.530;2023-07-31T05:32:18;17.80;99.90
46336;DHT22;31365;48.858;8.530;2023-07-31T05:34:46;17.90;99.90
46336;DHT22;31365;48.858;8.530;2023-07-31T05:37:14;18.00;99.90
46336;DHT22;31365;48.858;8.530;2023-07-31T05:39:44;18.00;99.90
46336;DHT22;31365;48.858;8.530;2023-07-31T05:42:12;18.10;99.90
46336;DHT22;31365;48.858;8.530;2023-07-31T05:44:41;18.20;99.90
46336;DHT22;31365;48.858;8.530;2023-07-31T05:47:09;18.20;99.90
46336;DHT22;31365;48.858;8.530;2023-07-31T05:49:37;18.30;99.90
46336;DHT22;31365;48.858;8.530;2023-07-31T05:52:06;18.40;99.90
46336;DHT22;31365;48.858;8.530;2023-07-31T05:54:34;18.50;99.90
46336;DHT22;31365;48.858;8.530;2023-07-31T05:57:05;18.60;99.90
46336;DHT22;31365;48.858;8.530;2023-07-31T05:59:34;18.60;99.90
46336;DHT22;31365;48.858;8.530;2023-07-31T06:02:02;18.60;99.90
46336;DHT22;31365;48.858;8.530;2023-07-31T06:04:31;18.70;99.90
46336;DHT22;31365;48.858;8.530;2023-07-31T06:07:00;18.70;99.90
46336;DHT22;31365;48.858;8.530;2023-07-31T06:09:28;18.80;99.90
46336;DHT22;31365;48.858;8.530;2023-07-31T06:11:56;18.70;99.90
46336;DHT22;31365;48.858;8.530;2023-07-31T06:14:26;18.70;99.90
46336;DHT22;31365;48.858;8.530;2023-07-31T06:16:55;18.80;99.90
46336;DHT22;31365;48.858;8.530;2023-07-31T06:19:23;18.80;99.90
46336;DHT22;31365;48.858;8.530;2023-07-31T06:21:51;18.90;99.90
46336;DHT22;31365;48.858;8.530;2023-07-31T06:24:20;19.00;99.90
46336;DHT22;31365;48.858;8.530;2023-07-31T06:26:48;19.10;99.90
46336;DHT22;31365;48.858;8.530;2023-07-31T06:29:17;19.20;99.90
46336;DHT22;31365;48.858;8.530;2023-07-31T06:31:46;19.10;99.90
46336;DHT22;31365;48.858;8.530;2023-07-31T06:34:15;19.10;99.90
46336;DHT22;31365;48.858;8.530;2023-07-31T06:36:43;19.10;99.90
46336;DHT22;31365;48.858;8.530;2023-07-31T06:39:12;19.10;99.90
46336;DHT22;31365;48.858;8.530;2023-07-31T06:41:41;19.20;99.90
46336;DHT22;31365;48.858;8.530;2023-07-31T06:44:10;19.30;99.90
46336;DHT22;31365;48.858;8.530;2023-07-31T06:46:39;19.30;99.90
46336;DHT22;31365;48.858;8.530;2023-07-31T06:49:09;19.40;99.90
46336;DHT22;31365;48.858;8.530;2023-07-31T06:51:37;19.50;99.90
46336;DHT22;31365;48.858;8.530;2023-07-31T06:54:05;19.60;99.90
46336;DHT22;31365;48.858;8.530;2023-07-31T06:56:33;19.60;99.90
46336;DHT22;31365;48.858;8.530;2023-07-31T06:59:04;19.60;99.90
46336;DHT22;31365;48.858;8.530;2023-07-31T07:01:32;19.60;99.90
46336;DHT22;31365;48.858;8.530;2023-07-31T07:04:01;19.70;99.90
46336;DHT22;31365;48.858;8.530;2023-07-31T07:06:31;19.70;99.90
46336;DHT22;31365;48.858;8.530;2023-07-31T07:08:59;19.60;99.90
46336;DHT22;31365;48.858;8.530;2023-07-31T07:11:27;19.60;99.90
46336;DHT22;31365;48.858;8.530;2023-07-31T07:13:56;19.50;99.90
46336;DHT22;31365;48.858;8.530;2023-07-31T07:16:24;19.50;99.90
46336;DHT22;31365;48.858;8.530;2023-07-31T07:18:52;19.60;99.90
46336;DHT22;31365;48.858;8.530;2023-07-31T07:21:32;19.60;99.90
46336;DHT22;31365;48.858;8.530;2023-07-31T07:24:00;19.60;99.90
46336;DHT22;31365;48.858;8.530;2023-07-31T07:26:29;19.60;99.90
46336;DHT22;31365;48.858;8.530;2023-07-31T07:28:57;19.60;99.90
46336;DHT22;31365;48.858;8.530;2023-07-31T07:31:28;19.70;99.90
46336;DHT22;31365;48.858;8.530;2023-07-31T07:33:56;19.80;99.90
46336;DHT22;31365;48.858;8.530;2023-07-31T07:36:24;19.90;99.90
46336;DHT22;31365;48.858;8.530;2023-07-31T07:38:57;19.90;99.90
46336;DHT22;31365;48.858;8.530;2023-07-31T07:41:25;20.10;99.90
46336;DHT22;31365;48.858;8.530;2023-07-31T07:43:53;20.00;99.90
46336;DHT22;31365;48.858;8.530;2023-07-31T07:46:21;20.00;99.90
46336;DHT22;31365;48.858;8.530;2023-07-31T07:48:49;20.00;99.90
46336;DHT22;31365;48.858;8.530;2023-07-31T07:51:18;20.00;99.90
46336;DHT22;31365;48.858;8.530;2023-07-31T07:53:46;20.00;99.90
46336;DHT22;31365;48.858;8.530;2023-07-31T07:56:15;19.90;99.90
46336;DHT22;31365;48.858;8.530;2023-07-31T07:58:43;19.90;99.90
46336;DHT22;31365;48.858;8.530;2023-07-31T08:01:11;19.90;99.90
46336;DHT22;31365;48.858;8.530;2023-07-31T08:03:40;19.90;99.90
46336;DHT22;31365;48.858;8.530;2023-07-31T08:06:08;19.90;99.90
46336;DHT22;31365;48.858;8.530;2023-07-31T08:08:37;20.00;99.90
46336;DHT22;31365;48.858;8.530;2023-07-31T08:11:06;20.10;99.90
46336;DHT22;31365;48.858;8.530;2023-07-31T08:13:36;20.10;99.90
46336;DHT22;31365;48.858;8.530;2023-07-31T08:16:04;20.20;99.90
46336;DHT22;31365;48.858;8.530;2023-07-31T08:18:32;20.10;99.90
46336;DHT22;31365;48.858;8.530;2023-07-31T08:21:02;20.10;99.90
46336;DHT22;31365;48.858;8.530;2023-07-31T08:23:30;20.20;99.90
46336;DHT22;31365;48.858;8.530;2023-07-31T08:25:58;20.40;99.90
46336;DHT22;31365;48.858;8.530;2023-07-31T08:28:27;20.60;99.90
46336;DHT22;31365;48.858;8.530;2023-07-31T08:30:56;20.70;99.90
46336;DHT22;31365;48.858;8.530;2023-07-31T08:33:24;20.90;99.90
46336;DHT22;31365;48.858;8.530;2023-07-31T08:35:53;21.20;99.90
46336;DHT22;31365;48.858;8.530;2023-07-31T08:38:21;21.20;99.90
46336;DHT22;31365;48.858;8.530;2023-07-31T08:40:52;21.20;99.90
46336;DHT22;31365;48.858;8.530;2023-07-31T08:43:22;21.10;99.90
46336;DHT22;31365;48.858;8.530;2023-07-31T08:45:53;21.00;99.90
46336;DHT22;31365;48.858;8.530;2023-07-31T08:48:23;21.20;99.90
46336;DHT22;31365;48.858;8.530;2023-07-31T08:50:53;21.40;99.90
46336;DHT22;31365;48.858;8.530;2023-07-31T08:53:21;21.60;99.90
46336;DHT22;31365;48.858;8.530;2023-07-31T08:55:50;21.90;99.90
46336;DHT22;31365;48.858;8.530;2023-07-31T08:58:21;22.00;99.90
46336;DHT22;31365;48.858;8.530;2023-07-31T09:00:52;22.10;99.90
46336;DHT22;31365;48.858;8.530;2023-07-31T09:03:25;22.20;99.90
46336;DHT22;31365;48.858;8.530;2023-07-31T09:05:57;22.00;99.90
46336;DHT22;31365;48.858;8.530;2023-07-31T09:08:29;21.90;99.90
46336;DHT22;31365;48.858;8.530;2023-07-31T09:11:00;21.80;99.90
46336;DHT22;31365;48.858;8.530;2023-07-31T09:13:31;21.70;99.90
46336;DHT22;31365;48.858;8.530;2023-07-31T09:16:00;21.60;99.90
46336;DHT22;31365;48.858;8.530;2023-07-31T09:18:29;21.60;99.90
46336;DHT22;31365;48.858;8.530;2023-07-31T09:21:02;21.70;99.90
46336;DHT22;31365;48.858;8.530;2023-07-31T09:23:41;21.80;99.90
46336;DHT22;31365;48.858;8.530;2023-07-31T09:26:10;22.00;99.90
46336;DHT22;31365;48.858;8.530;2023-07-31T09:28:38;22.10;99.90
46336;DHT22;31365;48.858;8.530;2023-07-31T09:31:06;22.20;99.90
46336;DHT22;31365;48.858;8.530;2023-07-31T09:33:54;22.20;99.90
46336;DHT22;31365;48.858;8.530;2023-07-31T09:36:23;22.20;99.90
46336;DHT22;31365;48.858;8.530;2023-07-31T09:38:51;22.20;99.90
46336;DHT22;31365;48.858;8.530;2023-07-31T09:41:19;22.30;99.90
46336;DHT22;31365;48.858;8.530;2023-07-31T09:43:53;22.30;99.90
46336;DHT22;31365;48.858;8.530;2023-07-31T09:46:22;22.30;99.90
46336;DHT22;31365;48.858;8.530;2023-07-31T09:48:51;22.20;99.90
46336;DHT22;31365;48.858;8.530;2023-07-31T09:51:26;22.30;99.90
46336;DHT22;31365;48.858;8.530;2023-07-31T09:53:54;22.30;99.90
46336;DHT22;31365;48.858;8.530;2023-07-31T09:56:23;22.30;99.90
46336;DHT22;31365;48.858;8.530;2023-07-31T09:58:53;22.40;99.90
46336;DHT22;31365;48.858;8.530;2023-07-31T10:01:23;22.60;99.90
46336;DHT22;31365;48.858;8.530;2023-07-31T10:03:53;22.80;99.90
46336;DHT22;31365;48.858;8.530;2023-07-31T10:06:21;22.80;99.90
46336;DHT22;31365;48.858;8.530;2023-07-31T10:08:51;22.80;99.90
46336;DHT22;31365;48.858;8.530;2023-07-31T10:11:22;22.70;99.90
46336;DHT22;31365;48.858;8.530;2023-07-31T10:13:54;22.70;99.90
46336;DHT22;31365;48.858;8.530;2023-07-31T10:16:23;22.80;99.90
46336;DHT22;31365;48.858;8.530;2023-07-31T10:18:54;22.90;99.90
46336;DHT22;31365;48.858;8.530;2023-07-31T10:21:22;22.90;99.90
46336;DHT22;31365;48.858;8.530;2023-07-31T10:23:50;23.00;99.90
46336;DHT22;31365;48.858;8.530;2023-07-31T10:26:19;23.00;99.90
46336;DHT22;31365;48.858;8.530;2023-07-31T10:28:52;22.90;99.90
46336;DHT22;31365;48.858;8.530;2023-07-31T10:31:22;23.00;99.90
46336;DHT22;31365;48.858;8.530;2023-07-31T10:33:53;23.10;99.90
46336;DHT22;31365;48.858;8.530;2023-07-31T10:36:23;23.30;99.90
46336;DHT22;31365;48.858;8.530;2023-07-31T10:38:52;23.30;99.90
46336;DHT22;31365;48.858;8.530;2023-07-31T10:41:28;23.40;99.90
46336;DHT22;31365;48.858;8.530;2023-07-31T10:44:00;23.50;99.90
46336;DHT22;31365;48.858;8.530;2023-07-31T10:46:29;23.40;99.90
46336;DHT22;31365;48.858;8.530;2023-07-31T10:49:00;23.30;99.90
46336;DHT22;31365;48.858;8.530;2023-07-31T10:51:33;23.30;99.90
46336;DHT22;31365;48.858;8.530;2023-07-31T10:54:12;23.20;99.90
46336;DHT22;31365;48.858;8.530;2023-07-31T10:56:45;23.30;99.90
46336;DHT22;31365;48.858;8.530;2023-07-31T10:59:14;23.30;99.90
46336;DHT22;31365;48.858;8.530;2023-07-31T11:01:50;23.20;99.90
46336;DHT22;31365;48.858;8.530;2023-07-31T11:04:24;23.10;99.90
46336;DHT22;31365;48.858;8.530;2023-07-31T11:06:57;23.00;99.90
46336;DHT22;31365;48.858;8.530;2023-07-31T11:09:28;23.00;99.90
46336;DHT22;31365;48.858;8.530;2023-07-31T11:11:59;22.80;99.90
46336;DHT22;31365;48.858;8.530;2023-07-31T11:14:28;22.90;99.90
46336;DHT22;31365;48.858;8.530;2023-07-31T11:16:56;22.70;99.90
46336;DHT22;31365;48.858;8.530;2023-07-31T11:19:26;22.80;99.90
46336;DHT22;31365;48.858;8.530;2023-07-31T11:21:55;23.00;99.90
46336;DHT22;31365;48.858;8.530;2023-07-31T11:24:24;23.20;99.90
46336;DHT22;31365;48.858;8.530;2023-07-31T11:26:53;23.20;99.90
46336;DHT22;31365;48.858;8.530;2023-07-31T11:29:27;23.30;99.90
46336;DHT22;31365;48.858;8.530;2023-07-31T11:31:55;23.40;99.90
46336;DHT22;31365;48.858;8.530;2023-07-31T11:34:23;23.50;99.90
46336;DHT22;31365;48.858;8.530;2023-07-31T11:36:56;23.60;99.90
46336;DHT22;31365;48.858;8.530;2023-07-31T11:39:24;23.40;99.90
46336;DHT22;31365;48.858;8.530;2023-07-31T11:41:58;23.20;99.90
46336;DHT22;31365;48.858;8.530;2023-07-31T11:44:37;23.30;99.90
46336;DHT22;31365;48.858;8.530;2023-07-31T11:47:06;23.30;99.90
46336;DHT22;31365;48.858;8.530;2023-07-31T11:49:37;23.40;99.90
46336;DHT22;31365;48.858;8.530;2023-07-31T11:52:07;23.50;99.90
46336;DHT22;31365;48.858;8.530;2023-07-31T11:54:35;23.60;99.90
46336;DHT22;31365;48.858;8.530;2023-07-31T11:57:05;23.70;99.90
46336;DHT22;31365;48.858;8.530;2023-07-31T11:59:34;23.90;99.90
46336;DHT22;31365;48.858;8.530;2023-07-31T12:02:03;23.90;99.90
46336;DHT22;31365;48.858;8.530;2023-07-31T12:04:31;23.80;99.90
46336;DHT22;31365;48.858;8.530;2023-07-31T12:07:00;23.90;99.90
46336;DHT22;31365;48.858;8.530;2023-07-31T12:09:30;24.00;99.90
46336;DHT22;31365;48.858;8.530;2023-07-31T12:11:58;24.10;99.90
46336;DHT22;31365;48.858;8.530;2023-07-31T12:14:27;24.20;99.90
46336;DHT22;31365;48.858;8.530;2023-07-31T12:16:57;24.40;99.90
46336;DHT22;31365;48.858;8.530;2023-07-31T12:19:27;24.60;99.90
46336;DHT22;31365;48.858;8.530;2023-07-31T12:21:58;25.30;99.90
46336;DHT22;31365;48.858;8.530;2023-07-31T12:24:27;26.60;99.90
46336;DHT22;31365;48.858;8.530;2023-07-31T12:26:57;27.30;99.90
46336;DHT22;31365;48.858;8.530;2023-07-31T12:29:33;27.50;99.90
46336;DHT22;31365;48.858;8.530;2023-07-31T12:32:20;27.40;99.90
46336;DHT22;31365;48.858;8.530;2023-07-31T12:34:48;27.70;99.90
46336;DHT22;31365;48.858;8.530;2023-07-31T12:37:17;28.30;99.90
46336;DHT22;31365;48.858;8.530;2023-07-31T12:39:45;28.90;99.90
46336;DHT22;31365;48.858;8.530;2023-07-31T12:42:17;29.40;99.90
46336;DHT22;31365;48.858;8.530;2023-07-31T12:44:45;29.10;99.90
46336;DHT22;31365;48.858;8.530;2023-07-31T12:47:13;28.80;99.50
46336;DHT22;31365;48.858;8.530;2023-07-31T12:49:41;28.70;99.90
46336;DHT22;31365;48.858;8.530;2023-07-31T12:52:10;28.90;99.70
46336;DHT22;31365;48.858;8.530;2023-07-31T12:54:38;29.00;99.90
46336;DHT22;31365;48.858;8.530;2023-07-31T12:57:06;29.10;99.40
46336;DHT22;31365;48.858;8.530;2023-07-31T12:59:35;28.70;99.20
46336;DHT22;31365;48.858;8.530;2023-07-31T13:02:05;28.40;99.10
46336;DHT22;31365;48.858;8.530;2023-07-31T13:04:33;28.20;99.80
46336;DHT22;31365;48.858;8.530;2023-07-31T13:07:01;28.20;99.40
46336;DHT22;31365;48.858;8.530;2023-07-31T13:09:30;28.10;99.80
46336;DHT22;31365;48.858;8.530;2023-07-31T13:11:57;27.50;99.80
46336;DHT22;31365;48.858;8.530;2023-07-31T13:14:26;26.90;99.90
46336;DHT22;31365;48.858;8.530;2023-07-31T13:16:56;26.60;99.90
46336;DHT22;31365;48.858;8.530;2023-07-31T13:19:25;26.50;99.90
46336;DHT22;31365;48.858;8.530;2023-07-31T13:21:53;26.40;99.90
46336;DHT22;31365;48.858;8.530;2023-07-31T13:24:21;26.70;99.90
46336;DHT22;31365;48.858;8.530;2023-07-31T13:26:50;26.80;99.90
46336;DHT22;31365;48.858;8.530;2023-07-31T13:29:18;26.60;99.90
46336;DHT22;31365;48.858;8.530;2023-07-31T13:31:48;26.50;99.90
46336;DHT22;31365;48.858;8.530;2023-07-31T13:34:18;26.40;99.90
46336;DHT22;31365;48.858;8.530;2023-07-31T13:36:46;26.60;99.90
46336;DHT22;31365;48.858;8.530;2023-07-31T13:39:14;27.00;99.90
46336;DHT22;31365;48.858;8.530;2023-07-31T13:41:42;27.10;99.90
46336;DHT22;31365;48.858;8.530;2023-07-31T13:44:11;26.80;99.90
46336;DHT22;31365;48.858;8.530;2023-07-31T13:46:39;26.60;99.90
46336;DHT22;31365;48.858;8.530;2023-07-31T13:49:08;26.80;99.90
46336;DHT22;31365;48.858;8.530;2023-07-31T13:51:37;26.80;99.90
46336;DHT22;31365;48.858;8.530;2023-07-31T13:54:06;26.70;99.90
46336;DHT22;31365;48.858;8.530;2023-07-31T13:56:34;26.40;99.90
46336;DHT22;31365;48.858;8.530;2023-07-31T13:59:02;26.60;99.90
46336;DHT22;31365;48.858;8.530;2023-07-31T14:01:31;26.30;99.90
46336;DHT22;31365;48.858;8.530;2023-07-31T14:03:59;26.00;99.90
46336;DHT22;31365;48.858;8.530;2023-07-31T14:06:27;25.70;99.90
46336;DHT22;31365;48.858;8.530;2023-07-31T14:08:57;25.70;99.90
46336;DHT22;31365;48.858;8.530;2023-07-31T14:11:25;25.60;99.90
46336;DHT22;31365;48.858;8.530;2023-07-31T14:13:54;25.70;99.90
46336;DHT22;31365;48.858;8.530;2023-07-31T14:16:23;25.80;99.90
46336;DHT22;31365;48.858;8.530;2023-07-31T14:18:52;25.50;99.90
46336;DHT22;31365;48.858;8.530;2023-07-31T14:21:21;25.30;99.90
46336;DHT22;31365;48.858;8.530;2023-07-31T14:23:49;25.00;99.90
46336;DHT22;31365;48.858;8.530;2023-07-31T14:26:19;25.00;99.90
46336;DHT22;31365;48.858;8.530;2023-07-31T14:28:47;24.80;99.90
46336;DHT22;31365;48.858;8.530;2023-07-31T14:31:15;24.70;99.90
46336;DHT22;31365;48.858;8.530;2023-07-31T14:33:43;24.60;99.90
46336;DHT22;31365;48.858;8.530;2023-07-31T14:36:12;24.60;99.90
46336;DHT22;31365;48.858;8.530;2023-07-31T14:38:40;24.70;99.90
46336;DHT22;31365;48.858;8.530;2023-07-31T14:41:08;24.70;99.90
46336;DHT22;31365;48.858;8.530;2023-07-31T14:43:38;24.50;99.90
46336;DHT22;31365;48.858;8.530;2023-07-31T14:46:06;24.50;99.90
46336;DHT22;31365;48.858;8.530;2023-07-31T14:48:34;24.40;99.90
46336;DHT22;31365;48.858;8.530;2023-07-31T14:51:02;24.40;99.90
46336;DHT22;31365;48.858;8.530;2023-07-31T14:53:31;24.40;99.90
46336;DHT22;31365;48.858;8.530;2023-07-31T14:55:59;24.40;99.90
46336;DHT22;31365;48.858;8.530;2023-07-31T14:58:27;24.60;99.90
46336;DHT22;31365;48.858;8.530;2023-07-31T15:00:57;24.60;99.90
46336;DHT22;31365;48.858;8.530;2023-07-31T15:03:26;24.80;99.90
46336;DHT22;31365;48.858;8.530;2023-07-31T15:05:54;24.90;99.90
46336;DHT22;31365;48.858;8.530;2023-07-31T15:08:23;25.20;99.90
46336;DHT22;31365;48.858;8.530;2023-07-31T15:10:51;25.10;99.90
46336;DHT22;31365;48.858;8.530;2023-07-31T15:13:24;25.00;99.90
46336;DHT22;31365;48.858;8.530;2023-07-31T15:15:52;25.00;99.90
46336;DHT22;31365;48.858;8.530;2023-07-31T15:18:23;25.00;99.90
46336;DHT22;31365;48.858;8.530;2023-07-31T15:20:53;25.10;99.90
46336;DHT22;31365;48.858;8.530;2023-07-31T15:23:22;25.20;99.90
46336;DHT22;31365;48.858;8.530;2023-07-31T15:25:52;25.40;99.90
46336;DHT22;31365;48.858;8.530;2023-07-31T15:28:21;25.40;99.90
46336;DHT22;31365;48.858;8.530;2023-07-31T15:30:49;25.50;99.90
46336;DHT22;31365;48.858;8.530;2023-07-31T15:33:18;25.60;99.90
46336;DHT22;31365;48.858;8.530;2023-07-31T15:35:48;25.70;99.90
46336;DHT22;31365;48.858;8.530;2023-07-31T15:38:16;25.60;99.90
46336;DHT22;31365;48.858;8.530;2023-07-31T15:40:44;25.50;99.90
46336;DHT22;31365;48.858;8.530;2023-07-31T15:43:12;25.50;99.90
46336;DHT22;31365;48.858;8.530;2023-07-31T15:45:40;25.50;99.90
46336;DHT22;31365;48.858;8.530;2023-07-31T15:48:08;25.20;99.90